Time;durP1;ratioP1;P1;durP2;ratioP2;P2;SDS_P1;SDS_P2;PMS_P1;PMS_P2;Temp;Humidity;BMP_temperature;BMP_pressure;BME280_temperature;BME280_humidity;BME280_pressure;Samples;Min_cycle;Max_cycle;Signal;HPM_P1;HPM_P2
2021/12/23 00:05:02;;;;;;;14.40;10.53;;;0.20;37.60;;;;;;10331718;28;20258;-77
2021/12/23 00:10:09;;;;;;;15.47;11.67;;;0.10;37.60;;;;;;10333177;28;21015;-77
2021/12/23 00:15:28;;;;;;;13.60;11.23;;;0.10;37.60;;;;;;10332282;28;20247;-77
2021/12/23 00:25:58;;;;;;;12.00;9.47;;;0.00;37.20;;;;;;10330361;28;20259;-77
2021/12/23 00:31:03;;;;;;;16.20;11.73;;;0.10;37.40;;;;;;10327428;28;20235;-77
2021/12/23 00:36:09;;;;;;;14.57;10.93;;;-0.10;37.50;;;;;;10330804;28;20253;-77
2021/12/23 00:41:13;;;;;;;11.60;9.57;;;-0.10;37.60;;;;;;10333306;28;20235;-77
2021/12/23 00:46:18;;;;;;;12.83;10.37;;;0.00;37.70;;;;;;10330975;28;20235;-78
2021/12/23 00:51:22;;;;;;;11.93;10.23;;;0.00;37.60;;;;;;10331139;28;20243;-78
2021/12/23 00:56:31;;;;;;;12.10;9.70;;;-0.20;37.60;;;;;;10332252;28;20250;-76
2021/12/23 01:01:36;;;;;;;13.33;9.40;;;-0.20;37.60;;;;;;10365253;28;20230;-78
2021/12/23 01:06:40;;;;;;;10.10;8.87;;;-0.20;37.60;;;;;;10302597;28;20734;-77
2021/12/23 01:11:44;;;;;;;12.93;10.27;;;-0.20;37.50;;;;;;10291612;28;20343;-77
2021/12/23 01:17:10;;;;;;;10.30;8.37;;;-0.10;37.70;;;;;;10288782;28;20820;-78
2021/12/23 01:22:12;;;;;;;11.43;10.23;;;-0.20;37.60;;;;;;10370022;28;20265;-78
2021/12/23 01:27:16;;;;;;;13.47;10.37;;;-0.20;37.70;;;;;;10372184;28;20269;-77
2021/12/23 01:32:21;;;;;;;12.93;10.97;;;-0.20;37.70;;;;;;10341492;28;20242;-76
2021/12/23 01:37:25;;;;;;;12.43;9.30;;;-0.20;37.70;;;;;;10333100;28;20227;-77
2021/12/23 01:42:28;;;;;;;14.13;10.17;;;-0.30;37.70;;;;;;10331105;28;20231;-77
2021/12/23 01:47:32;;;;;;;15.03;10.43;;;-0.30;37.60;;;;;;10330429;28;20620;-77
2021/12/23 01:52:36;;;;;;;15.10;10.30;;;-0.30;37.80;;;;;;10336962;28;20306;-77
2021/12/23 01:57:40;;;;;;;12.30;10.20;;;-0.30;37.70;;;;;;10336491;28;20258;-77
2021/12/23 02:02:45;;;;;;;12.17;9.73;;;-0.30;37.80;;;;;;10355347;28;20600;-77
2021/12/23 02:07:48;;;;;;;11.63;9.33;;;-0.30;37.90;;;;;;10376849;28;20238;-77
2021/12/23 02:12:52;;;;;;;12.63;9.90;;;-0.30;37.90;;;;;;10376793;28;20603;-77
2021/12/23 02:17:57;;;;;;;12.83;9.47;;;-0.30;37.90;;;;;;10377049;28;20226;-76
2021/12/23 02:23:01;;;;;;;13.67;10.37;;;-0.20;38.00;;;;;;10375955;28;20720;-77
2021/12/23 02:28:07;;;;;;;11.93;9.23;;;-0.30;38.00;;;;;;10375996;28;20237;-77
2021/12/23 02:33:11;;;;;;;13.27;9.97;;;-0.30;37.90;;;;;;10327678;28;20342;-78
2021/12/23 02:38:16;;;;;;;13.07;9.53;;;-0.30;37.80;;;;;;10332541;28;20238;-77
2021/12/23 02:43:22;;;;;;;13.13;8.77;;;-0.30;37.80;;;;;;10332527;28;20274;-77
2021/12/23 02:48:30;;;;;;;10.27;8.63;;;-0.40;37.90;;;;;;10333104;28;20235;-77
2021/12/23 02:53:35;;;;;;;12.60;9.30;;;-0.50;37.90;;;;;;10336332;28;20322;-77
2021/12/23 02:58:39;;;;;;;13.00;8.93;;;-0.50;37.90;;;;;;10336427;28;20313;-77
2021/12/23 03:03:43;;;;;;;11.27;8.70;;;-0.50;37.70;;;;;;10335209;28;20235;-77
2021/12/23 03:08:53;;;;;;;13.23;9.80;;;-0.50;37.70;;;;;;10335975;28;20266;-76
2021/12/23 03:13:57;;;;;;;10.20;8.47;;;-0.50;38.00;;;;;;10335506;28;20281;-77
2021/12/23 03:19:01;;;;;;;10.50;8.27;;;-0.60;38.10;;;;;;10336084;28;20239;-77
2021/12/23 03:24:07;;;;;;;12.77;9.70;;;-0.60;38.20;;;;;;10335283;28;20772;-78
2021/12/23 03:29:11;;;;;;;14.43;9.70;;;-0.60;38.10;;;;;;10334343;28;20658;-77
2021/12/23 03:34:14;;;;;;;11.07;9.17;;;-0.50;38.20;;;;;;10333537;28;20245;-77
2021/12/23 03:39:19;;;;;;;9.83;8.83;;;-0.70;38.10;;;;;;10333848;28;20295;-77
2021/12/23 03:44:23;;;;;;;13.43;9.77;;;-0.50;38.20;;;;;;10333689;28;20239;-77
2021/12/23 03:49:26;;;;;;;15.07;9.53;;;-0.70;38.10;;;;;;10332906;28;20243;-77
2021/12/23 03:54:31;;;;;;;12.80;10.47;;;-0.70;38.20;;;;;;10340416;28;20325;-77
2021/12/23 03:59:34;;;;;;;12.43;9.40;;;-0.60;38.40;;;;;;10326603;28;20227;-77
2021/12/23 04:04:38;;;;;;;12.00;10.20;;;-0.60;38.40;;;;;;10333175;28;20298;-77
2021/12/23 04:09:43;;;;;;;10.63;8.60;;;-0.60;38.40;;;;;;10334223;28;20249;-77
2021/12/23 04:14:46;;;;;;;11.53;9.27;;;-0.60;38.60;;;;;;10332900;28;20314;-78
2021/12/23 04:19:50;;;;;;;10.27;8.40;;;-0.60;38.70;;;;;;10333429;28;20317;-78
2021/12/23 04:24:54;;;;;;;11.43;8.60;;;-0.60;38.60;;;;;;10333092;28;20235;-77
2021/12/23 04:29:58;;;;;;;12.93;9.93;;;-0.60;38.60;;;;;;10334693;28;20750;-77
2021/12/23 04:35:01;;;;;;;15.70;9.43;;;-0.50;38.50;;;;;;10372123;28;20260;-77
2021/12/23 04:40:08;;;;;;;13.53;9.97;;;-0.50;38.40;;;;;;10297882;28;20250;-77
2021/12/23 04:45:12;;;;;;;12.10;9.83;;;-0.50;38.20;;;;;;10328542;28;20326;-77
2021/12/23 04:50:16;;;;;;;12.77;8.63;;;-0.40;38.30;;;;;;10329104;28;20676;-77
2021/12/23 04:55:20;;;;;;;11.97;9.57;;;-0.60;38.20;;;;;;10297494;28;20323;-77
2021/12/23 05:00:24;;;;;;;12.83;9.90;;;-0.70;38.10;;;;;;10310256;28;20945;-78
2021/12/23 05:05:27;;;;;;;12.07;9.77;;;-0.70;38.10;;;;;;10332170;28;20709;-78
2021/12/23 05:10:32;;;;;;;10.10;8.73;;;-0.70;38.10;;;;;;10333134;28;20238;-78
2021/12/23 05:15:35;;;;;;;9.93;8.87;;;-0.80;38.00;;;;;;10334039;28;20253;-77
2021/12/23 05:20:39;;;;;;;11.30;9.10;;;-0.80;38.20;;;;;;10331761;28;20235;-77
2021/12/23 05:25:44;;;;;;;11.37;9.97;;;-0.90;38.40;;;;;;10336280;28;20337;-77
2021/12/23 05:30:47;;;;;;;12.87;10.07;;;-0.90;38.70;;;;;;10338237;28;20604;-77
2021/12/23 05:35:50;;;;;;;14.07;10.90;;;-0.90;38.80;;;;;;10336781;28;20234;-77
2021/12/23 05:40:55;;;;;;;16.03;11.30;;;-0.70;39.10;;;;;;10335340;28;20227;-77
2021/12/23 05:46:00;;;;;;;16.80;11.47;;;-0.90;39.20;;;;;;10334384;28;20239;-77
2021/12/23 05:51:03;;;;;;;15.97;12.33;;;-1.00;39.40;;;;;;10337348;28;20257;-75
2021/12/23 05:56:08;;;;;;;18.00;12.13;;;-1.00;39.60;;;;;;10369445;28;20245;-75
2021/12/23 06:01:11;;;;;;;14.13;11.10;;;-1.00;40.00;;;;;;10343365;28;20298;-74
2021/12/23 06:06:15;;;;;;;18.67;12.67;;;-1.00;40.00;;;;;;10351148;28;20237;-76
2021/12/23 06:11:19;;;;;;;15.33;11.23;;;-0.90;40.20;;;;;;10340702;28;20237;-77
2021/12/23 06:16:22;;;;;;;17.03;12.07;;;-0.80;41.10;;;;;;10341703;28;20238;-76
2021/12/23 06:21:28;;;;;;;16.77;11.07;;;-0.60;41.80;;;;;;10306722;28;20238;-75
2021/12/23 06:26:33;;;;;;;19.10;13.40;;;-0.40;41.20;;;;;;10311298;28;20239;-75
2021/12/23 06:31:36;;;;;;;19.90;13.27;;;-0.30;40.90;;;;;;10321759;28;20335;-74
2021/12/23 06:36:40;;;;;;;17.07;12.50;;;-0.30;40.40;;;;;;10312553;28;20232;-73
2021/12/23 06:41:45;;;;;;;18.17;13.03;;;-0.30;40.20;;;;;;10313247;28;20227;-74
2021/12/23 06:46:48;;;;;;;18.50;13.60;;;-0.30;40.20;;;;;;10302476;28;20725;-73
2021/12/23 06:51:51;;;;;;;17.93;12.70;;;-0.30;40.20;;;;;;10303986;28;20223;-73
2021/12/23 06:56:56;;;;;;;20.67;14.03;;;-0.30;40.20;;;;;;10308286;28;20718;-74
2021/12/23 07:01:59;;;;;;;20.67;15.13;;;-0.30;40.30;;;;;;10303267;28;20676;-74
2021/12/23 07:07:10;;;;;;;19.30;14.07;;;-0.30;40.30;;;;;;10294951;28;20223;-74
2021/12/23 07:12:15;;;;;;;21.77;14.37;;;-0.20;40.40;;;;;;10303025;28;20721;-74
2021/12/23 07:17:18;;;;;;;21.20;14.80;;;-0.30;40.50;;;;;;10302356;28;20232;-74
2021/12/23 07:22:21;;;;;;;21.33;14.63;;;-0.30;40.40;;;;;;10305688;28;20714;-73
2021/12/23 07:27:26;;;;;;;19.93;14.00;;;-0.30;40.60;;;;;;10313672;28;20338;-74
2021/12/23 07:32:29;;;;;;;20.10;14.13;;;-0.20;40.80;;;;;;10313027;28;20219;-74
2021/12/23 07:37:32;;;;;;;22.70;15.07;;;-0.20;40.60;;;;;;10301603;28;20237;-74
2021/12/23 07:42:38;;;;;;;21.67;14.70;;;-0.10;40.60;;;;;;10298292;28;20238;-74
2021/12/23 07:47:41;;;;;;;22.10;15.60;;;-0.10;40.80;;;;;;10308600;28;20613;-73
2021/12/23 07:52:44;;;;;;;22.03;15.83;;;0.00;40.60;;;;;;10305518;28;21008;-74
2021/12/23 07:57:49;;;;;;;23.20;15.80;;;0.00;40.70;;;;;;10304527;28;20230;-74
2021/12/23 08:02:53;;;;;;;25.03;17.47;;;-0.10;40.80;;;;;;10294796;28;20258;-74
2021/12/23 08:07:56;;;;;;;23.10;16.00;;;-0.10;40.80;;;;;;10302218;28;20236;-74
2021/12/23 08:13:01;;;;;;;24.67;15.00;;;-0.10;40.90;;;;;;10303857;28;20608;-74
2021/12/23 08:18:04;;;;;;;19.00;13.87;;;-0.10;40.90;;;;;;10297709;28;20235;-74
2021/12/23 08:23:08;;;;;;;19.03;13.63;;;-0.20;40.70;;;;;;10303002;28;20234;-74
2021/12/23 08:28:12;;;;;;;20.53;14.70;;;-0.10;40.90;;;;;;10301448;28;20705;-75
2021/12/23 08:33:17;;;;;;;21.17;14.77;;;-0.10;40.90;;;;;;10306122;28;20238;-74
2021/12/23 08:38:21;;;;;;;22.27;14.80;;;-0.10;40.70;;;;;;10305769;28;20242;-77
2021/12/23 08:43:25;;;;;;;22.87;15.10;;;-0.10;40.60;;;;;;10310753;28;20606;-75
2021/12/23 08:48:29;;;;;;;20.03;14.30;;;-0.10;40.70;;;;;;10310109;28;20243;-75
2021/12/23 08:53:32;;;;;;;21.73;14.37;;;-0.10;40.80;;;;;;10304202;28;20705;-75
2021/12/23 08:58:39;;;;;;;20.43;13.83;;;-0.10;40.80;;;;;;10317254;28;20230;-75
2021/12/23 09:03:42;;;;;;;20.50;14.70;;;-0.10;40.90;;;;;;10310297;28;20230;-74
2021/12/23 09:08:46;;;;;;;19.53;13.50;;;-0.10;40.90;;;;;;10316042;28;20235;-73
2021/12/23 09:13:50;;;;;;;19.60;13.83;;;0.00;40.90;;;;;;10323250;28;20239;-74
2021/12/23 09:18:53;;;;;;;19.77;13.60;;;0.00;41.00;;;;;;10314993;28;20246;-74
2021/12/23 09:23:57;;;;;;;23.20;14.90;;;0.10;41.00;;;;;;10307028;28;20637;-73
2021/12/23 09:29:08;;;;;;;21.97;15.03;;;0.10;41.00;;;;;;10307528;28;20309;-74
2021/12/23 09:34:12;;;;;;;22.73;14.80;;;0.20;41.10;;;;;;10312451;28;20712;-74
2021/12/23 09:39:16;;;;;;;23.40;16.30;;;0.20;41.20;;;;;;10317671;28;20631;-73
2021/12/23 09:44:20;;;;;;;24.50;14.97;;;0.30;41.20;;;;;;10310073;28;20236;-74
2021/12/23 09:49:24;;;;;;;24.60;15.80;;;0.30;41.30;;;;;;10317255;28;20241;-74
2021/12/23 09:54:27;;;;;;;27.17;17.30;;;0.40;41.50;;;;;;10317960;28;20230;-73
2021/12/23 09:59:32;;;;;;;23.67;16.77;;;0.40;41.60;;;;;;10312403;28;20231;-74
2021/12/23 10:04:35;;;;;;;23.67;16.60;;;0.50;41.80;;;;;;10312281;28;20228;-74
2021/12/23 10:09:46;;;;;;;24.00;16.43;;;0.60;41.80;;;;;;10315305;28;20258;-74
2021/12/23 10:31:07;;;;;;;25.30;17.13;;;1.20;42.20;;;;;;10316496;28;20239;-74
2021/12/23 10:41:31;;;;;;;25.00;17.10;;;1.30;42.20;;;;;;10306522;28;20226;-74
2021/12/23 10:46:42;;;;;;;24.67;17.13;;;1.40;42.00;;;;;;10309119;28;20255;-75
2021/12/23 10:52:08;;;;;;;25.97;17.97;;;1.50;42.30;;;;;;10306059;28;20223;-75
2021/12/23 11:03:09;;;;;;;22.60;16.63;;;1.70;42.40;;;;;;10310939;28;20615;-79
2021/12/23 11:08:23;;;;;;;21.17;15.73;;;1.80;42.50;;;;;;10321186;28;20694;-77
2021/12/23 11:35:51;;;;;;;21.00;16.03;;;2.50;42.30;;;;;;10296098;28;20247;-76
2021/12/23 11:40:59;;;;;;;20.83;15.57;;;2.60;42.20;;;;;;10292328;28;20239;-75
2021/12/23 11:46:02;;;;;;;18.83;14.03;;;2.70;42.00;;;;;;10289104;28;20741;-75
2021/12/23 11:51:14;;;;;;;23.33;17.10;;;3.00;42.80;;;;;;10283518;28;20732;-76
2021/12/23 11:56:26;;;;;;;23.10;17.17;;;3.00;42.00;;;;;;10406746;27;20582;-69
2021/12/23 12:01:39;;;;;;;21.13;16.37;;;3.10;41.90;;;;;;10366619;28;20226;-70
2021/12/23 12:06:45;;;;;;;23.43;17.93;;;3.20;41.80;;;;;;10371859;28;20241;-70
2021/12/23 12:12:06;;;;;;;21.67;16.67;;;3.30;41.70;;;;;;10364948;28;20237;-70
2021/12/23 12:17:36;;;;;;;20.83;15.73;;;3.40;41.60;;;;;;10364709;28;20232;-71
2021/12/23 12:22:58;;;;;;;21.23;16.23;;;3.40;41.40;;;;;;10367430;28;20230;-71
2021/12/23 12:28:15;;;;;;;23.03;18.83;;;3.40;41.50;;;;;;10367168;28;20237;-70
2021/12/23 12:33:37;;;;;;;24.97;18.30;;;3.50;41.70;;;;;;10368239;28;20218;-71
2021/12/23 12:38:43;;;;;;;24.53;18.07;;;3.60;41.70;;;;;;10367982;28;20241;-70
2021/12/23 12:44:04;;;;;;;24.33;18.30;;;3.60;41.60;;;;;;10382266;28;20236;-70
2021/12/23 12:49:13;;;;;;;23.57;18.00;;;3.70;41.70;;;;;;10379503;28;20221;-70
2021/12/23 12:54:25;;;;;;;23.83;19.13;;;3.70;41.70;;;;;;10376254;28;20305;-70
2021/12/23 12:59:35;;;;;;;22.93;17.33;;;3.80;41.70;;;;;;10382045;28;20583;-70
2021/12/23 13:04:42;;;;;;;28.40;20.77;;;4.00;41.90;;;;;;10373139;28;20231;-70
2021/12/23 13:09:55;;;;;;;23.53;18.90;;;3.90;41.80;;;;;;10354486;28;20215;-70
2021/12/23 13:15:20;;;;;;;22.20;17.47;;;3.90;41.80;;;;;;10350679;28;20752;-71
2021/12/23 13:20:46;;;;;;;21.73;17.17;;;4.00;41.90;;;;;;10352206;28;20817;-71
2021/12/23 13:25:53;;;;;;;24.33;16.87;;;4.10;42.00;;;;;;10354143;28;20621;-71
2021/12/23 13:30:59;;;;;;;28.23;21.93;;;4.10;42.00;;;;;;10352213;28;20250;-71
2021/12/23 13:36:02;;;;;;;24.83;21.70;;;4.20;42.10;;;;;;10351149;28;20231;-71
2021/12/23 13:41:14;;;;;;;29.13;23.60;;;4.20;42.10;;;;;;10351755;28;20729;-71
2021/12/23 13:46:19;;;;;;;26.40;21.77;;;4.30;42.10;;;;;;10350701;28;20566;-70
2021/12/23 13:51:24;;;;;;;26.30;21.27;;;4.40;42.00;;;;;;10350625;28;20721;-70
2021/12/23 13:56:32;;;;;;;25.57;19.70;;;4.40;42.00;;;;;;10352028;28;20282;-69
2021/12/23 14:01:58;;;;;;;21.33;17.53;;;4.50;41.80;;;;;;10350828;28;20222;-70
2021/12/23 14:07:06;;;;;;;21.60;16.00;;;4.60;43.80;;;;;;10354515;28;20259;-72
2021/12/23 14:12:12;;;;;;;19.47;15.43;;;4.70;42.80;;;;;;10349662;28;20222;-72
2021/12/23 14:17:25;;;;;;;18.77;16.47;;;4.80;42.60;;;;;;10350911;28;20227;-72
2021/12/23 14:28:01;;;;;;;21.57;16.57;;;5.00;42.20;;;;;;10323971;28;20242;-74
2021/12/23 14:33:11;;;;;;;20.30;15.57;;;5.00;42.10;;;;;;10346128;28;20222;-73
2021/12/23 14:38:14;;;;;;;21.13;15.73;;;5.00;41.80;;;;;;10352403;28;20252;-72
2021/12/23 14:43:17;;;;;;;17.13;14.27;;;5.10;42.40;;;;;;10344574;28;20226;-77
2021/12/23 14:48:22;;;;;;;22.20;17.40;;;5.10;42.80;;;;;;10343484;28;20683;-73
2021/12/23 14:53:25;;;;;;;20.10;16.97;;;5.20;42.40;;;;;;10347225;28;20227;-73
2021/12/23 14:58:32;;;;;;;21.73;17.80;;;5.20;42.20;;;;;;10342440;28;20231;-73
2021/12/23 15:03:36;;;;;;;21.97;17.20;;;5.30;42.20;;;;;;10342809;28;20253;-73
2021/12/23 15:08:46;;;;;;;19.17;15.53;;;5.30;41.90;;;;;;10346354;28;20272;-73
2021/12/23 15:13:49;;;;;;;17.27;14.60;;;5.40;41.90;;;;;;10348537;28;20230;-69
2021/12/23 15:19:10;;;;;;;17.93;15.03;;;5.40;41.90;;;;;;10347258;28;20227;-70
2021/12/23 15:24:23;;;;;;;21.93;17.53;;;5.40;41.70;;;;;;10345071;28;20946;-71
2021/12/23 15:29:47;;;;;;;19.00;16.53;;;5.40;41.60;;;;;;10345647;28;20219;-71
2021/12/23 15:34:59;;;;;;;27.30;19.73;;;5.40;41.70;;;;;;10345253;28;20233;-72
2021/12/23 15:40:05;;;;;;;21.33;16.83;;;5.40;41.70;;;;;;10340008;28;20228;-71
2021/12/23 15:45:28;;;;;;;22.70;17.30;;;5.40;41.70;;;;;;10326314;28;20794;-71
2021/12/23 15:50:35;;;;;;;20.07;16.93;;;5.40;41.80;;;;;;10327666;28;20265;-72
2021/12/23 15:55:38;;;;;;;20.67;16.27;;;5.40;41.70;;;;;;10329700;28;20241;-72
2021/12/23 16:00:41;;;;;;;23.60;17.10;;;5.40;41.70;;;;;;10332860;28;20223;-72
2021/12/23 16:11:07;;;;;;;22.73;16.27;;;5.40;41.70;;;;;;10334338;28;20675;-72
2021/12/23 16:16:10;;;;;;;20.27;17.80;;;5.40;41.60;;;;;;10327488;28;20238;-73
2021/12/23 16:21:15;;;;;;;22.13;18.23;;;5.40;41.70;;;;;;10332133;28;20350;-72
2021/12/23 16:26:18;;;;;;;23.17;19.17;;;5.40;41.80;;;;;;10329549;28;20230;-73
2021/12/23 16:31:22;;;;;;;26.47;21.57;;;5.40;41.70;;;;;;10330536;28;20234;-69
2021/12/23 16:36:27;;;;;;;24.87;19.47;;;5.40;41.80;;;;;;10328304;28;20601;-69
2021/12/23 16:41:31;;;;;;;24.13;18.03;;;5.40;41.90;;;;;;10337502;28;20222;-69
2021/12/23 16:46:36;;;;;;;21.60;17.27;;;5.40;41.80;;;;;;10332098;28;20229;-69
2021/12/23 16:51:42;;;;;;;18.97;15.97;;;5.40;41.80;;;;;;10346085;28;20233;-69
2021/12/23 17:02:06;;;;;;;20.43;17.37;;;5.30;41.90;;;;;;10350722;28;20218;-68
2021/12/23 17:07:10;;;;;;;21.03;16.70;;;5.30;42.20;;;;;;10355832;28;20230;-68
2021/12/23 17:12:13;;;;;;;19.67;15.00;;;5.30;42.40;;;;;;10353327;28;20231;-68
2021/12/23 17:17:17;;;;;;;17.73;14.73;;;5.20;42.30;;;;;;10353155;28;20249;-69
2021/12/23 17:22:21;;;;;;;31.93;28.57;;;5.20;42.40;;;;;;10348324;28;20222;-69
2021/12/23 17:27:26;;;;;;;19.50;16.17;;;5.20;42.90;;;;;;10349713;28;20238;-68
2021/12/23 17:32:30;;;;;;;19.27;16.43;;;5.20;42.90;;;;;;10349983;28;20905;-69
2021/12/23 17:37:34;;;;;;;17.40;15.10;;;5.20;42.90;;;;;;10346047;28;20227;-69
2021/12/23 17:42:38;;;;;;;17.03;14.03;;;5.20;42.90;;;;;;10341805;28;20721;-69
2021/12/23 17:47:41;;;;;;;14.77;12.77;;;5.20;42.90;;;;;;10347901;28;20231;-69
2021/12/23 17:52:46;;;;;;;14.27;12.20;;;5.20;42.90;;;;;;10350415;28;20317;-69
2021/12/23 17:57:49;;;;;;;14.07;11.90;;;5.20;43.40;;;;;;10345312;28;20615;-69
2021/12/23 18:02:52;;;;;;;12.90;11.50;;;5.20;43.30;;;;;;10345917;28;20312;-69
2021/12/23 18:07:57;;;;;;;12.67;11.33;;;5.20;43.50;;;;;;10343088;28;20250;-70
2021/12/23 18:13:00;;;;;;;13.93;11.53;;;5.20;43.90;;;;;;10340016;28;20222;-69
2021/12/23 18:18:04;;;;;;;13.60;11.97;;;5.20;43.60;;;;;;10344315;28;20230;-69
2021/12/23 18:23:10;;;;;;;15.23;12.73;;;5.30;43.80;;;;;;10342285;28;20226;-70
2021/12/23 18:28:17;;;;;;;19.77;15.93;;;5.30;44.10;;;;;;10343858;28;20223;-69
2021/12/23 18:33:23;;;;;;;33.07;29.63;;;5.30;43.90;;;;;;10341687;28;20321;-69
2021/12/23 18:38:29;;;;;;;128.40;80.97;;;5.40;43.90;;;;;;10342783;28;20218;-69
2021/12/23 18:43:32;;;;;;;72.37;47.83;;;5.50;44.30;;;;;;10340374;28;20253;-69
2021/12/23 18:48:36;;;;;;;39.30;28.07;;;5.50;43.90;;;;;;10340006;28;20731;-71
2021/12/23 18:53:41;;;;;;;25.23;19.10;;;5.50;43.80;;;;;;10341902;28;20230;-70
2021/12/23 18:58:44;;;;;;;19.80;15.67;;;5.60;44.10;;;;;;10342489;28;20226;-70
2021/12/23 19:04:10;;;;;;;14.80;13.03;;;5.60;43.90;;;;;;10341499;28;20225;-70
2021/12/23 19:09:16;;;;;;;13.47;11.07;;;5.60;43.80;;;;;;10343595;28;20227;-71
2021/12/23 19:14:19;;;;;;;11.67;10.43;;;5.70;44.10;;;;;;10336888;28;20230;-70
2021/12/23 19:19:22;;;;;;;13.77;12.30;;;5.80;43.90;;;;;;10339804;28;20241;-69
2021/12/23 19:24:28;;;;;;;13.17;11.83;;;5.80;43.80;;;;;;10339370;28;20870;-69
2021/12/23 19:29:31;;;;;;;14.67;13.03;;;5.80;43.90;;;;;;10334310;28;20236;-69
2021/12/23 19:34:35;;;;;;;17.33;15.53;;;5.80;43.60;;;;;;10331432;28;20714;-69
2021/12/23 19:39:40;;;;;;;15.70;14.20;;;5.90;43.80;;;;;;10330997;28;20227;-74
2021/12/23 19:44:43;;;;;;;17.10;15.30;;;5.90;43.90;;;;;;10327423;28;20226;-73
2021/12/23 19:49:46;;;;;;;10.80;9.70;;;5.90;43.70;;;;;;10339682;28;20223;-70
2021/12/23 19:54:51;;;;;;;10.60;7.93;;;5.90;44.00;;;;;;10340998;28;20237;-70
2021/12/23 19:59:54;;;;;;;9.40;6.97;;;6.00;44.70;;;;;;10335678;28;20230;-70
2021/12/23 20:04:58;;;;;;;7.90;6.83;;;6.10;44.80;;;;;;10330172;28;20227;-70
2021/12/23 20:10:03;;;;;;;8.23;7.43;;;6.30;45.00;;;;;;10341302;28;20255;-69
2021/12/23 20:15:07;;;;;;;9.00;7.87;;;6.50;45.10;;;;;;10339188;28;20321;-70
2021/12/23 20:20:13;;;;;;;7.67;6.87;;;6.70;45.00;;;;;;10349662;28;20710;-71
2021/12/23 20:25:19;;;;;;;7.33;6.50;;;6.90;44.90;;;;;;10350975;28;20232;-71
2021/12/23 20:30:26;;;;;;;6.77;6.07;;;7.10;44.70;;;;;;10340824;28;20230;-71
2021/12/23 20:35:32;;;;;;;7.37;6.67;;;7.20;44.50;;;;;;10341483;28;20256;-71
2021/12/23 20:40:37;;;;;;;6.50;5.90;;;7.40;44.70;;;;;;10349778;28;20337;-71
2021/12/23 20:45:41;;;;;;;7.10;6.40;;;7.50;44.40;;;;;;10338598;28;20227;-71
2021/12/23 20:50:45;;;;;;;6.77;5.97;;;7.60;44.40;;;;;;10344218;28;20233;-71
2021/12/23 20:55:51;;;;;;;7.57;5.73;;;7.70;44.30;;;;;;10346985;28;20272;-70
2021/12/23 21:00:55;;;;;;;5.90;5.30;;;7.70;44.20;;;;;;10342960;28;20309;-71
2021/12/23 21:06:01;;;;;;;6.17;5.53;;;7.90;44.30;;;;;;10341502;28;20253;-71
2021/12/23 21:11:06;;;;;;;5.43;4.93;;;8.00;44.20;;;;;;10341509;28;20633;-71
2021/12/23 21:16:10;;;;;;;5.73;4.33;;;8.20;44.10;;;;;;10335957;28;20456;-71
2021/12/23 21:21:14;;;;;;;5.97;4.80;;;8.40;44.10;;;;;;10338715;28;20236;-69
2021/12/23 21:26:19;;;;;;;5.23;4.50;;;8.60;44.00;;;;;;10337072;28;20231;-70
2021/12/23 21:31:23;;;;;;;5.03;4.53;;;8.70;43.70;;;;;;10344529;28;20230;-71
2021/12/23 21:36:27;;;;;;;4.57;4.13;;;8.90;43.70;;;;;;10342378;28;20234;-71
2021/12/23 21:41:33;;;;;;;5.00;4.30;;;9.00;43.50;;;;;;10343075;28;20754;-69
2021/12/23 21:46:37;;;;;;;4.60;4.10;;;9.10;43.20;;;;;;10336331;28;20226;-69
2021/12/23 21:51:41;;;;;;;4.50;4.10;;;9.30;43.50;;;;;;10347291;28;20267;-73
2021/12/23 21:56:47;;;;;;;5.00;4.33;;;9.40;43.30;;;;;;10349677;28;20259;-73
2021/12/23 22:01:50;;;;;;;5.20;4.13;;;9.50;42.90;;;;;;10349619;28;20254;-73
2021/12/23 22:06:54;;;;;;;5.10;4.60;;;9.50;43.00;;;;;;10352646;28;20898;-73
2021/12/23 22:11:59;;;;;;;5.13;4.63;;;9.60;42.80;;;;;;10352897;28;20715;-73
2021/12/23 22:17:02;;;;;;;6.43;5.73;;;9.60;42.40;;;;;;10352563;28;20219;-72
2021/12/23 22:22:06;;;;;;;5.17;4.67;;;9.60;42.60;;;;;;10351786;28;20223;-70
2021/12/23 22:27:11;;;;;;;4.87;4.37;;;9.60;42.40;;;;;;10357236;28;20230;-70
2021/12/23 22:32:15;;;;;;;5.97;4.50;;;9.70;42.40;;;;;;10350847;28;20233;-69
2021/12/23 22:37:18;;;;;;;5.23;4.67;;;9.70;42.50;;;;;;10352159;28;20222;-70
2021/12/23 22:42:23;;;;;;;6.20;4.13;;;9.70;42.40;;;;;;10352774;28;20240;-69
2021/12/23 22:47:26;;;;;;;6.23;4.70;;;9.70;42.20;;;;;;10351360;28;20233;-69
2021/12/23 22:52:30;;;;;;;5.60;4.87;;;9.70;42.40;;;;;;10352680;28;20238;-69
2021/12/23 22:57:34;;;;;;;4.80;4.40;;;9.70;42.30;;;;;;10346764;28;20238;-69
2021/12/23 23:02:37;;;;;;;5.37;4.87;;;9.70;42.20;;;;;;10350795;28;20305;-69
2021/12/23 23:07:41;;;;;;;5.10;4.60;;;9.70;42.30;;;;;;10348689;28;20261;-69
2021/12/23 23:12:48;;;;;;;5.27;4.70;;;9.70;42.30;;;;;;10345298;28;20222;-69
2021/12/23 23:17:51;;;;;;;5.53;4.50;;;9.70;42.30;;;;;;10357543;28;20631;-69
2021/12/23 23:22:54;;;;;;;4.97;4.40;;;9.70;42.20;;;;;;10349447;28;20764;-69
2021/12/23 23:28:14;;;;;;;5.13;4.63;;;9.80;42.40;;;;;;10348510;28;20721;-69
2021/12/23 23:38:47;;;;;;;7.43;4.47;;;9.80;42.20;;;;;;10335790;28;20742;-69
2021/12/23 23:43:52;;;;;;;4.57;4.17;;;9.80;42.20;;;;;;10349707;28;20227;-69
2021/12/23 23:48:55;;;;;;;5.90;4.57;;;9.90;42.00;;;;;;10348186;28;20720;-70
2021/12/23 23:54:00;;;;;;;5.23;4.13;;;9.90;42.00;;;;;;10344213;28;20226;-70
2021/12/23 23:59:04;;;;;;;5.73;5.03;;;9.90;42.00;;;;;;10346385;28;20236;-70
